sensor_id;sensor_type;location;lat;lon;timestamp;P1;durP1;ratioP1;P2;durP2;ratioP2
5052;SDS011;2545;50.892;5.740;2024-02-26T00:01:42;1.50;;;1.37;;
5052;SDS011;2545;50.892;5.740;2024-02-26T00:04:11;1.87;;;1.60;;
5052;SDS011;2545;50.892;5.740;2024-02-26T00:06:38;3.53;;;1.47;;
5052;SDS011;2545;50.892;5.740;2024-02-26T00:09:07;2.70;;;1.80;;
5052;SDS011;2545;50.892;5.740;2024-02-26T00:11:40;4.97;;;1.97;;
5052;SDS011;2545;50.892;5.740;2024-02-26T00:14:06;2.70;;;1.60;;
5052;SDS011;2545;50.892;5.740;2024-02-26T00:16:31;8.03;;;2.10;;
5052;SDS011;2545;50.892;5.740;2024-02-26T00:18:57;3.73;;;2.10;;
5052;SDS011;2545;50.892;5.740;2024-02-26T00:21:24;1.83;;;1.67;;
5052;SDS011;2545;50.892;5.740;2024-02-26T00:23:52;2.30;;;1.93;;
5052;SDS011;2545;50.892;5.740;2024-02-26T00:26:18;8.03;;;2.17;;
5052;SDS011;2545;50.892;5.740;2024-02-26T00:28:45;2.90;;;2.07;;
5052;SDS011;2545;50.892;5.740;2024-02-26T00:31:11;2.77;;;1.70;;
5052;SDS011;2545;50.892;5.740;2024-02-26T00:33:36;3.20;;;2.10;;
5052;SDS011;2545;50.892;5.740;2024-02-26T00:36:02;3.20;;;2.10;;
5052;SDS011;2545;50.892;5.740;2024-02-26T00:38:27;1.97;;;1.77;;
5052;SDS011;2545;50.892;5.740;2024-02-26T00:40:54;2.37;;;1.70;;
5052;SDS011;2545;50.892;5.740;2024-02-26T00:43:20;3.27;;;1.60;;
5052;SDS011;2545;50.892;5.740;2024-02-26T00:45:45;4.03;;;1.80;;
5052;SDS011;2545;50.892;5.740;2024-02-26T00:48:12;2.60;;;1.87;;
5052;SDS011;2545;50.892;5.740;2024-02-26T00:50:38;2.47;;;1.60;;
5052;SDS011;2545;50.892;5.740;2024-02-26T00:53:04;2.73;;;1.80;;
5052;SDS011;2545;50.892;5.740;2024-02-26T00:55:30;3.20;;;1.60;;
5052;SDS011;2545;50.892;5.740;2024-02-26T00:57:55;3.33;;;1.70;;
5052;SDS011;2545;50.892;5.740;2024-02-26T01:00:20;2.93;;;1.70;;
5052;SDS011;2545;50.892;5.740;2024-02-26T01:02:46;1.77;;;1.57;;
5052;SDS011;2545;50.892;5.740;2024-02-26T01:05:11;1.40;;;1.30;;
5052;SDS011;2545;50.892;5.740;2024-02-26T01:07:37;1.80;;;1.70;;
5052;SDS011;2545;50.892;5.740;2024-02-26T01:10:04;2.30;;;1.40;;
5052;SDS011;2545;50.892;5.740;2024-02-26T01:12:30;1.43;;;1.33;;
5052;SDS011;2545;50.892;5.740;2024-02-26T01:14:56;3.30;;;1.80;;
5052;SDS011;2545;50.892;5.740;2024-02-26T01:17:22;3.87;;;1.50;;
5052;SDS011;2545;50.892;5.740;2024-02-26T01:19:47;1.30;;;1.20;;
5052;SDS011;2545;50.892;5.740;2024-02-26T01:22:12;1.30;;;1.20;;
5052;SDS011;2545;50.892;5.740;2024-02-26T01:24:39;2.43;;;1.50;;
5052;SDS011;2545;50.892;5.740;2024-02-26T01:27:07;1.87;;;1.43;;
5052;SDS011;2545;50.892;5.740;2024-02-26T01:29:35;3.10;;;1.53;;
5052;SDS011;2545;50.892;5.740;2024-02-26T01:32:00;2.33;;;1.47;;
5052;SDS011;2545;50.892;5.740;2024-02-26T01:34:25;2.60;;;1.47;;
5052;SDS011;2545;50.892;5.740;2024-02-26T01:36:50;4.30;;;1.37;;
5052;SDS011;2545;50.892;5.740;2024-02-26T01:39:16;6.83;;;1.57;;
5052;SDS011;2545;50.892;5.740;2024-02-26T01:41:44;1.60;;;1.20;;
5052;SDS011;2545;50.892;5.740;2024-02-26T01:44:11;2.90;;;1.40;;
5052;SDS011;2545;50.892;5.740;2024-02-26T01:46:38;5.17;;;1.40;;
5052;SDS011;2545;50.892;5.740;2024-02-26T01:49:03;3.57;;;1.60;;
5052;SDS011;2545;50.892;5.740;2024-02-26T01:51:30;4.23;;;1.67;;
5052;SDS011;2545;50.892;5.740;2024-02-26T01:53:58;2.80;;;1.20;;
5052;SDS011;2545;50.892;5.740;2024-02-26T01:56:26;2.97;;;1.47;;
5052;SDS011;2545;50.892;5.740;2024-02-26T01:58:57;1.57;;;1.47;;
5052;SDS011;2545;50.892;5.740;2024-02-26T02:01:25;1.57;;;1.47;;
5052;SDS011;2545;50.892;5.740;2024-02-26T02:03:52;1.40;;;1.20;;
5052;SDS011;2545;50.892;5.740;2024-02-26T02:06:19;2.27;;;1.40;;
5052;SDS011;2545;50.892;5.740;2024-02-26T02:08:45;2.67;;;1.83;;
5052;SDS011;2545;50.892;5.740;2024-02-26T02:11:12;1.57;;;1.17;;
5052;SDS011;2545;50.892;5.740;2024-02-26T02:13:40;8.13;;;1.97;;
5052;SDS011;2545;50.892;5.740;2024-02-26T02:16:06;2.97;;;1.57;;
5052;SDS011;2545;50.892;5.740;2024-02-26T02:18:35;2.47;;;1.33;;
5052;SDS011;2545;50.892;5.740;2024-02-26T02:21:20;1.60;;;1.50;;
5052;SDS011;2545;50.892;5.740;2024-02-26T02:23:45;2.33;;;1.73;;
5052;SDS011;2545;50.892;5.740;2024-02-26T02:26:12;1.50;;;1.40;;
5052;SDS011;2545;50.892;5.740;2024-02-26T02:28:38;1.50;;;1.40;;
5052;SDS011;2545;50.892;5.740;2024-02-26T02:31:06;4.43;;;2.10;;
5052;SDS011;2545;50.892;5.740;2024-02-26T02:33:32;3.20;;;1.70;;
5052;SDS011;2545;50.892;5.740;2024-02-26T02:35:59;1.50;;;1.40;;
5052;SDS011;2545;50.892;5.740;2024-02-26T02:38:24;2.87;;;1.67;;
5052;SDS011;2545;50.892;5.740;2024-02-26T02:40:51;3.43;;;1.93;;
5052;SDS011;2545;50.892;5.740;2024-02-26T02:43:16;4.70;;;2.30;;
5052;SDS011;2545;50.892;5.740;2024-02-26T02:45:44;1.30;;;1.20;;
5052;SDS011;2545;50.892;5.740;2024-02-26T02:48:13;2.37;;;1.80;;
5052;SDS011;2545;50.892;5.740;2024-02-26T02:50:38;2.43;;;1.87;;
5052;SDS011;2545;50.892;5.740;2024-02-26T02:53:04;1.80;;;1.70;;
5052;SDS011;2545;50.892;5.740;2024-02-26T02:55:29;4.63;;;2.03;;
5052;SDS011;2545;50.892;5.740;2024-02-26T02:57:56;1.93;;;1.50;;
5052;SDS011;2545;50.892;5.740;2024-02-26T03:00:22;2.70;;;1.77;;
5052;SDS011;2545;50.892;5.740;2024-02-26T03:02:48;2.67;;;1.73;;
5052;SDS011;2545;50.892;5.740;2024-02-26T03:05:14;2.37;;;1.63;;
5052;SDS011;2545;50.892;5.740;2024-02-26T03:07:39;2.67;;;2.20;;
5052;SDS011;2545;50.892;5.740;2024-02-26T03:10:05;2.53;;;1.60;;
5052;SDS011;2545;50.892;5.740;2024-02-26T03:12:30;3.47;;;1.50;;
5052;SDS011;2545;50.892;5.740;2024-02-26T03:14:56;2.30;;;1.63;;
5052;SDS011;2545;50.892;5.740;2024-02-26T03:17:21;2.50;;;1.67;;
5052;SDS011;2545;50.892;5.740;2024-02-26T03:19:49;5.20;;;1.93;;
5052;SDS011;2545;50.892;5.740;2024-02-26T03:22:18;1.70;;;1.60;;
5052;SDS011;2545;50.892;5.740;2024-02-26T03:24:43;3.70;;;1.90;;
5052;SDS011;2545;50.892;5.740;2024-02-26T03:27:10;2.10;;;1.83;;
5052;SDS011;2545;50.892;5.740;2024-02-26T03:29:36;2.70;;;1.70;;
5052;SDS011;2545;50.892;5.740;2024-02-26T03:32:04;1.97;;;1.77;;
5052;SDS011;2545;50.892;5.740;2024-02-26T03:34:30;2.30;;;1.73;;
5052;SDS011;2545;50.892;5.740;2024-02-26T03:36:56;1.70;;;1.60;;
5052;SDS011;2545;50.892;5.740;2024-02-26T03:39:21;3.20;;;1.60;;
5052;SDS011;2545;50.892;5.740;2024-02-26T03:41:49;1.60;;;1.47;;
5052;SDS011;2545;50.892;5.740;2024-02-26T03:44:15;1.97;;;1.60;;
5052;SDS011;2545;50.892;5.740;2024-02-26T03:46:40;4.40;;;2.40;;
5052;SDS011;2545;50.892;5.740;2024-02-26T03:49:08;2.10;;;1.63;;
5052;SDS011;2545;50.892;5.740;2024-02-26T03:51:33;2.97;;;2.20;;
5052;SDS011;2545;50.892;5.740;2024-02-26T03:53:58;7.23;;;2.03;;
5052;SDS011;2545;50.892;5.740;2024-02-26T03:56:24;4.70;;;2.00;;
5052;SDS011;2545;50.892;5.740;2024-02-26T03:58:50;3.77;;;2.00;;
5052;SDS011;2545;50.892;5.740;2024-02-26T04:01:15;2.37;;;2.00;;
5052;SDS011;2545;50.892;5.740;2024-02-26T04:03:41;1.80;;;1.70;;
5052;SDS011;2545;50.892;5.740;2024-02-26T04:06:10;10.60;;;2.53;;
5052;SDS011;2545;50.892;5.740;2024-02-26T04:08:35;5.10;;;1.90;;
5052;SDS011;2545;50.892;5.740;2024-02-26T04:11:03;3.00;;;2.20;;
5052;SDS011;2545;50.892;5.740;2024-02-26T04:13:36;2.00;;;1.90;;
5052;SDS011;2545;50.892;5.740;2024-02-26T04:16:05;2.43;;;2.10;;
5052;SDS011;2545;50.892;5.740;2024-02-26T04:18:31;4.00;;;2.20;;
5052;SDS011;2545;50.892;5.740;2024-02-26T04:20:56;5.30;;;2.10;;
5052;SDS011;2545;50.892;5.740;2024-02-26T04:23:22;5.37;;;1.80;;
5052;SDS011;2545;50.892;5.740;2024-02-26T04:25:48;4.37;;;2.03;;
5052;SDS011;2545;50.892;5.740;2024-02-26T04:28:13;1.73;;;1.63;;
5052;SDS011;2545;50.892;5.740;2024-02-26T04:30:38;2.50;;;2.03;;
5052;SDS011;2545;50.892;5.740;2024-02-26T04:33:04;2.13;;;1.93;;
5052;SDS011;2545;50.892;5.740;2024-02-26T04:35:30;3.73;;;2.03;;
5052;SDS011;2545;50.892;5.740;2024-02-26T04:37:55;4.10;;;2.30;;
5052;SDS011;2545;50.892;5.740;2024-02-26T04:40:22;6.23;;;2.27;;
5052;SDS011;2545;50.892;5.740;2024-02-26T04:42:47;2.00;;;1.87;;
5052;SDS011;2545;50.892;5.740;2024-02-26T04:45:12;1.83;;;1.73;;
5052;SDS011;2545;50.892;5.740;2024-02-26T04:47:38;6.47;;;1.73;;
5052;SDS011;2545;50.892;5.740;2024-02-26T04:50:04;3.67;;;1.70;;
5052;SDS011;2545;50.892;5.740;2024-02-26T04:52:30;2.13;;;1.80;;
5052;SDS011;2545;50.892;5.740;2024-02-26T04:54:55;3.37;;;2.70;;
5052;SDS011;2545;50.892;5.740;2024-02-26T04:57:21;3.13;;;2.47;;
5052;SDS011;2545;50.892;5.740;2024-02-26T04:59:46;3.83;;;2.00;;
5052;SDS011;2545;50.892;5.740;2024-02-26T05:02:12;3.80;;;2.90;;
5052;SDS011;2545;50.892;5.740;2024-02-26T05:04:37;1.83;;;1.73;;
5052;SDS011;2545;50.892;5.740;2024-02-26T05:07:04;4.17;;;2.20;;
5052;SDS011;2545;50.892;5.740;2024-02-26T05:09:30;8.90;;;2.37;;
5052;SDS011;2545;50.892;5.740;2024-02-26T05:11:57;5.90;;;2.07;;
5052;SDS011;2545;50.892;5.740;2024-02-26T05:14:22;2.20;;;1.97;;
5052;SDS011;2545;50.892;5.740;2024-02-26T05:16:47;3.90;;;2.27;;
5052;SDS011;2545;50.892;5.740;2024-02-26T05:19:13;7.03;;;2.30;;
5052;SDS011;2545;50.892;5.740;2024-02-26T05:21:38;3.67;;;2.23;;
5052;SDS011;2545;50.892;5.740;2024-02-26T05:24:04;1.60;;;1.50;;
5052;SDS011;2545;50.892;5.740;2024-02-26T05:26:29;3.23;;;1.90;;
5052;SDS011;2545;50.892;5.740;2024-02-26T05:28:55;3.47;;;1.60;;
5052;SDS011;2545;50.892;5.740;2024-02-26T05:31:24;1.73;;;1.43;;
5052;SDS011;2545;50.892;5.740;2024-02-26T05:33:50;2.67;;;2.03;;
5052;SDS011;2545;50.892;5.740;2024-02-26T05:36:19;2.20;;;1.83;;
5052;SDS011;2545;50.892;5.740;2024-02-26T05:38:49;1.80;;;1.70;;
5052;SDS011;2545;50.892;5.740;2024-02-26T05:41:15;2.03;;;1.80;;
5052;SDS011;2545;50.892;5.740;2024-02-26T05:43:41;3.40;;;1.70;;
5052;SDS011;2545;50.892;5.740;2024-02-26T05:46:06;3.30;;;1.80;;
5052;SDS011;2545;50.892;5.740;2024-02-26T05:48:32;2.87;;;1.63;;
5052;SDS011;2545;50.892;5.740;2024-02-26T05:50:57;2.17;;;1.97;;
5052;SDS011;2545;50.892;5.740;2024-02-26T05:53:22;2.93;;;1.67;;
5052;SDS011;2545;50.892;5.740;2024-02-26T05:55:49;2.40;;;1.53;;
5052;SDS011;2545;50.892;5.740;2024-02-26T05:58:14;2.33;;;1.80;;
5052;SDS011;2545;50.892;5.740;2024-02-26T06:00:40;4.60;;;1.90;;
5052;SDS011;2545;50.892;5.740;2024-02-26T06:03:05;2.60;;;1.73;;
5052;SDS011;2545;50.892;5.740;2024-02-26T06:05:31;2.00;;;1.80;;
5052;SDS011;2545;50.892;5.740;2024-02-26T06:07:57;1.73;;;1.43;;
5052;SDS011;2545;50.892;5.740;2024-02-26T06:10:23;1.40;;;1.30;;
5052;SDS011;2545;50.892;5.740;2024-02-26T06:12:48;2.00;;;1.30;;
5052;SDS011;2545;50.892;5.740;2024-02-26T06:15:13;2.30;;;1.70;;
5052;SDS011;2545;50.892;5.740;2024-02-26T06:17:39;1.70;;;1.60;;
5052;SDS011;2545;50.892;5.740;2024-02-26T06:20:04;2.90;;;1.90;;
5052;SDS011;2545;50.892;5.740;2024-02-26T06:22:31;5.00;;;1.60;;
5052;SDS011;2545;50.892;5.740;2024-02-26T06:24:58;1.87;;;1.67;;
5052;SDS011;2545;50.892;5.740;2024-02-26T06:27:25;4.97;;;1.90;;
5052;SDS011;2545;50.892;5.740;2024-02-26T06:29:50;2.67;;;1.83;;
5052;SDS011;2545;50.892;5.740;2024-02-26T06:32:16;2.23;;;2.00;;
5052;SDS011;2545;50.892;5.740;2024-02-26T06:34:43;3.97;;;2.60;;
5052;SDS011;2545;50.892;5.740;2024-02-26T06:37:14;3.57;;;2.47;;
5052;SDS011;2545;50.892;5.740;2024-02-26T06:39:41;4.47;;;2.93;;
5052;SDS011;2545;50.892;5.740;2024-02-26T06:42:06;8.90;;;3.93;;
5052;SDS011;2545;50.892;5.740;2024-02-26T06:44:33;4.60;;;3.70;;
5052;SDS011;2545;50.892;5.740;2024-02-26T06:46:58;4.67;;;4.20;;
5052;SDS011;2545;50.892;5.740;2024-02-26T06:49:24;5.47;;;4.50;;
5052;SDS011;2545;50.892;5.740;2024-02-26T06:51:50;8.43;;;4.47;;
5052;SDS011;2545;50.892;5.740;2024-02-26T06:54:16;8.20;;;4.87;;
5052;SDS011;2545;50.892;5.740;2024-02-26T06:56:42;15.13;;;4.90;;
5052;SDS011;2545;50.892;5.740;2024-02-26T06:59:07;4.87;;;4.07;;
5052;SDS011;2545;50.892;5.740;2024-02-26T07:01:33;7.70;;;4.70;;
5052;SDS011;2545;50.892;5.740;2024-02-26T07:03:58;5.47;;;4.77;;
5052;SDS011;2545;50.892;5.740;2024-02-26T07:06:25;6.47;;;5.40;;
5052;SDS011;2545;50.892;5.740;2024-02-26T07:08:50;9.00;;;4.07;;
5052;SDS011;2545;50.892;5.740;2024-02-26T07:11:15;7.20;;;4.83;;
5052;SDS011;2545;50.892;5.740;2024-02-26T07:13:41;8.10;;;4.90;;
5052;SDS011;2545;50.892;5.740;2024-02-26T07:16:08;7.93;;;5.47;;
5052;SDS011;2545;50.892;5.740;2024-02-26T07:18:35;5.93;;;4.90;;
5052;SDS011;2545;50.892;5.740;2024-02-26T07:21:03;6.60;;;4.30;;
5052;SDS011;2545;50.892;5.740;2024-02-26T07:23:29;7.60;;;4.60;;
5052;SDS011;2545;50.892;5.740;2024-02-26T07:25:55;6.17;;;4.70;;
5052;SDS011;2545;50.892;5.740;2024-02-26T07:28:20;6.20;;;4.73;;
5052;SDS011;2545;50.892;5.740;2024-02-26T07:30:47;4.87;;;4.30;;
5052;SDS011;2545;50.892;5.740;2024-02-26T07:33:13;8.60;;;4.90;;
5052;SDS011;2545;50.892;5.740;2024-02-26T07:35:39;6.37;;;4.70;;
5052;SDS011;2545;50.892;5.740;2024-02-26T07:38:07;9.07;;;4.50;;
5052;SDS011;2545;50.892;5.740;2024-02-26T07:40:33;6.80;;;4.83;;
5052;SDS011;2545;50.892;5.740;2024-02-26T07:42:58;6.43;;;4.47;;
5052;SDS011;2545;50.892;5.740;2024-02-26T07:45:24;5.60;;;4.90;;
5052;SDS011;2545;50.892;5.740;2024-02-26T07:47:49;6.90;;;4.70;;
5052;SDS011;2545;50.892;5.740;2024-02-26T07:50:16;5.30;;;4.57;;
5052;SDS011;2545;50.892;5.740;2024-02-26T07:52:42;7.67;;;5.50;;
5052;SDS011;2545;50.892;5.740;2024-02-26T07:55:07;5.60;;;4.60;;
5052;SDS011;2545;50.892;5.740;2024-02-26T07:57:33;6.77;;;4.60;;
5052;SDS011;2545;50.892;5.740;2024-02-26T07:59:59;7.47;;;5.17;;
5052;SDS011;2545;50.892;5.740;2024-02-26T08:02:26;10.93;;;5.37;;
5052;SDS011;2545;50.892;5.740;2024-02-26T08:04:51;5.53;;;4.97;;
5052;SDS011;2545;50.892;5.740;2024-02-26T08:07:17;7.47;;;5.47;;
5052;SDS011;2545;50.892;5.740;2024-02-26T08:09:42;7.80;;;4.70;;
5052;SDS011;2545;50.892;5.740;2024-02-26T08:12:08;5.30;;;4.80;;
5052;SDS011;2545;50.892;5.740;2024-02-26T08:14:34;5.23;;;4.07;;
5052;SDS011;2545;50.892;5.740;2024-02-26T08:16:59;5.50;;;4.50;;
5052;SDS011;2545;50.892;5.740;2024-02-26T08:19:24;6.90;;;4.90;;
5052;SDS011;2545;50.892;5.740;2024-02-26T08:21:50;7.00;;;5.67;;
5052;SDS011;2545;50.892;5.740;2024-02-26T08:24:18;5.93;;;4.83;;
5052;SDS011;2545;50.892;5.740;2024-02-26T08:26:43;8.20;;;5.07;;
5052;SDS011;2545;50.892;5.740;2024-02-26T08:29:09;20.20;;;5.83;;
5052;SDS011;2545;50.892;5.740;2024-02-26T08:31:34;6.07;;;4.63;;
5052;SDS011;2545;50.892;5.740;2024-02-26T08:34:02;7.63;;;5.77;;
5052;SDS011;2545;50.892;5.740;2024-02-26T08:36:28;7.37;;;4.63;;
5052;SDS011;2545;50.892;5.740;2024-02-26T08:38:53;5.80;;;5.20;;
5052;SDS011;2545;50.892;5.740;2024-02-26T08:41:19;6.60;;;5.07;;
5052;SDS011;2545;50.892;5.740;2024-02-26T08:43:44;6.50;;;5.23;;
5052;SDS011;2545;50.892;5.740;2024-02-26T08:46:10;6.37;;;4.83;;
5052;SDS011;2545;50.892;5.740;2024-02-26T08:48:38;6.53;;;5.53;;
5052;SDS011;2545;50.892;5.740;2024-02-26T08:51:05;10.63;;;5.60;;
5052;SDS011;2545;50.892;5.740;2024-02-26T08:53:32;5.73;;;5.03;;
5052;SDS011;2545;50.892;5.740;2024-02-26T08:55:59;6.60;;;5.20;;
5052;SDS011;2545;50.892;5.740;2024-02-26T08:58:24;5.40;;;4.90;;
5052;SDS011;2545;50.892;5.740;2024-02-26T09:00:49;5.03;;;4.37;;
5052;SDS011;2545;50.892;5.740;2024-02-26T09:03:15;6.67;;;4.70;;
5052;SDS011;2545;50.892;5.740;2024-02-26T09:05:41;5.40;;;4.40;;
5052;SDS011;2545;50.892;5.740;2024-02-26T09:08:06;6.60;;;5.37;;
5052;SDS011;2545;50.892;5.740;2024-02-26T09:10:32;6.00;;;4.60;;
5052;SDS011;2545;50.892;5.740;2024-02-26T09:12:58;5.67;;;4.20;;
5052;SDS011;2545;50.892;5.740;2024-02-26T09:15:23;4.57;;;4.17;;
5052;SDS011;2545;50.892;5.740;2024-02-26T09:17:48;7.40;;;4.73;;
5052;SDS011;2545;50.892;5.740;2024-02-26T09:20:15;4.63;;;4.00;;
5052;SDS011;2545;50.892;5.740;2024-02-26T09:22:44;12.07;;;4.23;;
5052;SDS011;2545;50.892;5.740;2024-02-26T09:25:10;6.97;;;3.83;;
5052;SDS011;2545;50.892;5.740;2024-02-26T09:27:35;6.27;;;3.63;;
5052;SDS011;2545;50.892;5.740;2024-02-26T09:30:01;8.50;;;4.10;;
5052;SDS011;2545;50.892;5.740;2024-02-26T09:32:27;4.83;;;4.03;;
5052;SDS011;2545;50.892;5.740;2024-02-26T09:34:52;7.07;;;4.13;;
5052;SDS011;2545;50.892;5.740;2024-02-26T09:37:18;6.23;;;3.87;;
5052;SDS011;2545;50.892;5.740;2024-02-26T09:39:43;6.23;;;3.40;;
5052;SDS011;2545;50.892;5.740;2024-02-26T09:42:09;5.27;;;3.83;;
5052;SDS011;2545;50.892;5.740;2024-02-26T09:44:38;8.50;;;4.00;;
5052;SDS011;2545;50.892;5.740;2024-02-26T09:47:07;4.30;;;3.90;;
5052;SDS011;2545;50.892;5.740;2024-02-26T09:49:35;6.30;;;3.63;;
5052;SDS011;2545;50.892;5.740;2024-02-26T09:52:01;5.97;;;3.73;;
5052;SDS011;2545;50.892;5.740;2024-02-26T09:54:30;3.93;;;3.40;;
5052;SDS011;2545;50.892;5.740;2024-02-26T09:56:59;4.20;;;3.60;;
5052;SDS011;2545;50.892;5.740;2024-02-26T09:59:27;4.27;;;3.53;;
5052;SDS011;2545;50.892;5.740;2024-02-26T10:01:54;6.40;;;4.03;;
5052;SDS011;2545;50.892;5.740;2024-02-26T10:04:23;5.63;;;3.47;;
5052;SDS011;2545;50.892;5.740;2024-02-26T10:06:49;4.23;;;3.40;;
5052;SDS011;2545;50.892;5.740;2024-02-26T10:09:14;5.73;;;3.57;;
5052;SDS011;2545;50.892;5.740;2024-02-26T10:11:41;3.07;;;2.87;;
5052;SDS011;2545;50.892;5.740;2024-02-26T10:14:08;4.60;;;3.80;;
5052;SDS011;2545;50.892;5.740;2024-02-26T10:16:33;4.10;;;3.70;;
5052;SDS011;2545;50.892;5.740;2024-02-26T10:19:00;5.17;;;3.57;;
5052;SDS011;2545;50.892;5.740;2024-02-26T10:21:25;7.17;;;5.10;;
5052;SDS011;2545;50.892;5.740;2024-02-26T10:23:51;4.50;;;3.60;;
5052;SDS011;2545;50.892;5.740;2024-02-26T10:26:17;8.83;;;3.43;;
5052;SDS011;2545;50.892;5.740;2024-02-26T10:28:42;3.73;;;3.43;;
5052;SDS011;2545;50.892;5.740;2024-02-26T10:31:09;4.93;;;3.93;;
5052;SDS011;2545;50.892;5.740;2024-02-26T10:33:35;3.90;;;3.13;;
5052;SDS011;2545;50.892;5.740;2024-02-26T10:36:04;3.70;;;3.40;;
5052;SDS011;2545;50.892;5.740;2024-02-26T10:38:37;4.50;;;3.77;;
5052;SDS011;2545;50.892;5.740;2024-02-26T10:41:03;5.77;;;3.40;;
5052;SDS011;2545;50.892;5.740;2024-02-26T10:43:30;3.70;;;3.40;;
5052;SDS011;2545;50.892;5.740;2024-02-26T10:45:56;5.00;;;3.37;;
5052;SDS011;2545;50.892;5.740;2024-02-26T10:48:21;3.20;;;2.87;;
5052;SDS011;2545;50.892;5.740;2024-02-26T10:50:48;5.83;;;2.77;;
5052;SDS011;2545;50.892;5.740;2024-02-26T10:53:16;2.60;;;2.40;;
5052;SDS011;2545;50.892;5.740;2024-02-26T10:55:46;4.40;;;2.97;;
5052;SDS011;2545;50.892;5.740;2024-02-26T10:58:23;2.70;;;2.50;;
5052;SDS011;2545;50.892;5.740;2024-02-26T11:00:50;2.63;;;2.10;;
5052;SDS011;2545;50.892;5.740;2024-02-26T11:03:17;6.40;;;2.10;;
5052;SDS011;2545;50.892;5.740;2024-02-26T11:05:52;4.20;;;1.73;;
5052;SDS011;2545;50.892;5.740;2024-02-26T11:08:22;3.57;;;2.30;;
5052;SDS011;2545;50.892;5.740;2024-02-26T11:10:50;4.60;;;2.10;;
5052;SDS011;2545;50.892;5.740;2024-02-26T11:13:18;3.30;;;2.10;;
5052;SDS011;2545;50.892;5.740;2024-02-26T11:15:46;3.40;;;2.00;;
5052;SDS011;2545;50.892;5.740;2024-02-26T11:18:15;1.83;;;1.63;;
5052;SDS011;2545;50.892;5.740;2024-02-26T11:20:46;1.63;;;1.50;;
5052;SDS011;2545;50.892;5.740;2024-02-26T11:23:13;2.83;;;1.30;;
5052;SDS011;2545;50.892;5.740;2024-02-26T11:25:40;1.40;;;1.00;;
5052;SDS011;2545;50.892;5.740;2024-02-26T11:28:11;1.57;;;1.47;;
5052;SDS011;2545;50.892;5.740;2024-02-26T11:30:40;6.83;;;1.50;;
5052;SDS011;2545;50.892;5.740;2024-02-26T11:33:10;3.03;;;1.40;;
5052;SDS011;2545;50.892;5.740;2024-02-26T11:35:37;2.13;;;1.60;;
5052;SDS011;2545;50.892;5.740;2024-02-26T11:38:04;1.80;;;1.70;;
5052;SDS011;2545;50.892;5.740;2024-02-26T11:40:33;2.10;;;1.90;;
5052;SDS011;2545;50.892;5.740;2024-02-26T11:43:04;2.00;;;1.90;;
5052;SDS011;2545;50.892;5.740;2024-02-26T11:48:04;8.00;;;2.47;;
5052;SDS011;2545;50.892;5.740;2024-02-26T11:50:40;4.20;;;2.30;;
5052;SDS011;2545;50.892;5.740;2024-02-26T11:56:19;4.37;;;2.20;;
5052;SDS011;2545;50.892;5.740;2024-02-26T12:02:02;1.60;;;1.50;;
5052;SDS011;2545;50.892;5.740;2024-02-26T12:04:28;1.73;;;1.63;;
5052;SDS011;2545;50.892;5.740;2024-02-26T12:06:56;2.23;;;1.90;;
5052;SDS011;2545;50.892;5.740;2024-02-26T12:09:31;2.50;;;1.60;;
5052;SDS011;2545;50.892;5.740;2024-02-26T12:11:59;3.10;;;1.83;;
5052;SDS011;2545;50.892;5.740;2024-02-26T12:14:26;2.23;;;2.00;;
5052;SDS011;2545;50.892;5.740;2024-02-26T12:16:52;2.13;;;1.90;;
5052;SDS011;2545;50.892;5.740;2024-02-26T12:19:18;4.80;;;2.53;;
5052;SDS011;2545;50.892;5.740;2024-02-26T12:21:43;4.13;;;2.10;;
5052;SDS011;2545;50.892;5.740;2024-02-26T12:24:11;8.53;;;2.60;;
5052;SDS011;2545;50.892;5.740;2024-02-26T12:26:38;2.40;;;2.20;;
5052;SDS011;2545;50.892;5.740;2024-02-26T12:29:04;2.47;;;2.03;;
5052;SDS011;2545;50.892;5.740;2024-02-26T12:31:30;3.30;;;2.77;;
5052;SDS011;2545;50.892;5.740;2024-02-26T12:33:57;3.47;;;2.70;;
5052;SDS011;2545;50.892;5.740;2024-02-26T12:36:22;2.60;;;2.40;;
5052;SDS011;2545;50.892;5.740;2024-02-26T12:38:50;2.10;;;1.90;;
5052;SDS011;2545;50.892;5.740;2024-02-26T12:41:16;2.70;;;2.00;;
5052;SDS011;2545;50.892;5.740;2024-02-26T12:43:42;3.40;;;2.80;;
5052;SDS011;2545;50.892;5.740;2024-02-26T12:46:09;3.70;;;3.10;;
5052;SDS011;2545;50.892;5.740;2024-02-26T12:48:36;4.63;;;3.50;;
5052;SDS011;2545;50.892;5.740;2024-02-26T12:51:01;3.23;;;2.67;;
5052;SDS011;2545;50.892;5.740;2024-02-26T12:53:27;5.57;;;2.70;;
5052;SDS011;2545;50.892;5.740;2024-02-26T12:55:55;3.50;;;3.07;;
5052;SDS011;2545;50.892;5.740;2024-02-26T12:58:21;3.90;;;2.60;;
5052;SDS011;2545;50.892;5.740;2024-02-26T13:00:53;3.77;;;2.97;;
5052;SDS011;2545;50.892;5.740;2024-02-26T13:03:19;6.73;;;3.03;;
5052;SDS011;2545;50.892;5.740;2024-02-26T13:05:49;4.63;;;2.90;;
5052;SDS011;2545;50.892;5.740;2024-02-26T13:08:21;3.90;;;3.17;;
5052;SDS011;2545;50.892;5.740;2024-02-26T13:10:47;10.43;;;3.50;;
5052;SDS011;2545;50.892;5.740;2024-02-26T13:13:17;6.80;;;4.43;;
5052;SDS011;2545;50.892;5.740;2024-02-26T13:15:43;4.20;;;3.80;;
5052;SDS011;2545;50.892;5.740;2024-02-26T13:18:12;7.53;;;5.40;;
5052;SDS011;2545;50.892;5.740;2024-02-26T13:20:38;8.87;;;5.50;;
5052;SDS011;2545;50.892;5.740;2024-02-26T13:23:07;7.20;;;5.07;;
5052;SDS011;2545;50.892;5.740;2024-02-26T13:25:36;6.83;;;5.90;;
5052;SDS011;2545;50.892;5.740;2024-02-26T13:31:00;8.13;;;6.20;;
5052;SDS011;2545;50.892;5.740;2024-02-26T13:33:27;10.47;;;7.27;;
5052;SDS011;2545;50.892;5.740;2024-02-26T13:35:54;8.33;;;5.93;;
5052;SDS011;2545;50.892;5.740;2024-02-26T13:38:20;8.77;;;6.60;;
5052;SDS011;2545;50.892;5.740;2024-02-26T13:40:45;7.43;;;6.63;;
5052;SDS011;2545;50.892;5.740;2024-02-26T13:43:11;11.10;;;7.30;;
5052;SDS011;2545;50.892;5.740;2024-02-26T13:45:37;10.60;;;7.00;;
5052;SDS011;2545;50.892;5.740;2024-02-26T13:48:04;10.73;;;5.93;;
5052;SDS011;2545;50.892;5.740;2024-02-26T13:50:32;7.17;;;5.50;;
5052;SDS011;2545;50.892;5.740;2024-02-26T13:52:57;8.57;;;6.20;;
5052;SDS011;2545;50.892;5.740;2024-02-26T13:55:25;7.67;;;6.10;;
5052;SDS011;2545;50.892;5.740;2024-02-26T13:57:53;8.30;;;6.13;;
5052;SDS011;2545;50.892;5.740;2024-02-26T14:00:24;8.13;;;5.93;;
5052;SDS011;2545;50.892;5.740;2024-02-26T14:02:50;8.43;;;6.33;;
5052;SDS011;2545;50.892;5.740;2024-02-26T14:05:16;9.07;;;6.00;;
5052;SDS011;2545;50.892;5.740;2024-02-26T14:07:42;9.83;;;6.50;;
5052;SDS011;2545;50.892;5.740;2024-02-26T14:10:17;8.33;;;6.60;;
5052;SDS011;2545;50.892;5.740;2024-02-26T14:12:42;9.00;;;6.90;;
5052;SDS011;2545;50.892;5.740;2024-02-26T14:15:08;8.83;;;6.93;;
5052;SDS011;2545;50.892;5.740;2024-02-26T14:17:35;10.93;;;7.50;;
5052;SDS011;2545;50.892;5.740;2024-02-26T14:20:01;8.87;;;7.97;;
5052;SDS011;2545;50.892;5.740;2024-02-26T14:22:27;11.10;;;8.77;;
5052;SDS011;2545;50.892;5.740;2024-02-26T14:24:52;9.67;;;7.50;;
5052;SDS011;2545;50.892;5.740;2024-02-26T14:27:18;12.10;;;8.57;;
5052;SDS011;2545;50.892;5.740;2024-02-26T14:29:47;11.33;;;8.80;;
5052;SDS011;2545;50.892;5.740;2024-02-26T14:32:12;13.50;;;8.70;;
5052;SDS011;2545;50.892;5.740;2024-02-26T14:34:38;9.93;;;8.17;;
5052;SDS011;2545;50.892;5.740;2024-02-26T14:37:04;12.10;;;8.77;;
5052;SDS011;2545;50.892;5.740;2024-02-26T14:39:30;11.60;;;8.60;;
5052;SDS011;2545;50.892;5.740;2024-02-26T14:41:58;12.10;;;8.30;;
5052;SDS011;2545;50.892;5.740;2024-02-26T14:44:24;9.83;;;8.13;;
5052;SDS011;2545;50.892;5.740;2024-02-26T14:46:50;14.00;;;8.17;;
5052;SDS011;2545;50.892;5.740;2024-02-26T14:49:16;15.07;;;9.03;;
5052;SDS011;2545;50.892;5.740;2024-02-26T14:51:42;13.20;;;9.70;;
5052;SDS011;2545;50.892;5.740;2024-02-26T14:54:10;14.63;;;10.67;;
5052;SDS011;2545;50.892;5.740;2024-02-26T14:56:39;15.07;;;10.70;;
5052;SDS011;2545;50.892;5.740;2024-02-26T14:59:05;14.13;;;11.07;;
5052;SDS011;2545;50.892;5.740;2024-02-26T15:01:31;16.23;;;11.77;;
5052;SDS011;2545;50.892;5.740;2024-02-26T15:03:58;13.47;;;10.80;;
5052;SDS011;2545;50.892;5.740;2024-02-26T15:06:25;16.67;;;10.80;;
5052;SDS011;2545;50.892;5.740;2024-02-26T15:08:51;14.27;;;10.13;;
5052;SDS011;2545;50.892;5.740;2024-02-26T15:11:17;15.67;;;10.90;;
5052;SDS011;2545;50.892;5.740;2024-02-26T15:13:45;14.17;;;10.50;;
5052;SDS011;2545;50.892;5.740;2024-02-26T15:16:20;14.40;;;10.77;;
5052;SDS011;2545;50.892;5.740;2024-02-26T15:18:46;15.77;;;10.23;;
5052;SDS011;2545;50.892;5.740;2024-02-26T15:21:13;15.00;;;10.17;;